Time;durP1;ratioP1;P1;durP2;ratioP2;P2;SDS_P1;SDS_P2;PMS_P1;PMS_P2;Temp;Humidity;BMP_temperature;BMP_pressure;BME280_temperature;BME280_humidity;BME280_pressure;Samples;Min_cycle;Max_cycle;Signal;HPM_P1;HPM_P2
2022/03/26 00:01:37;;;;;;;;;55.25;40.50;;;;;13.94;36.18;102344.69;5057320;28;45321;-51
2022/03/26 00:04:03;;;;;;;;;57.75;43.25;;;;;13.88;36.78;102346.06;5057413;28;45463;-52
2022/03/26 00:06:28;;;;;;;;;52.00;39.00;;;;;13.89;36.22;102345.06;5057855;28;45291;-49
2022/03/26 00:08:54;;;;;;;;;55.25;42.25;;;;;13.88;36.98;102355.91;5039090;28;46337;-53
2022/03/26 00:11:20;;;;;;;;;59.25;41.50;;;;;13.84;36.36;102349.97;5057318;28;45385;-52
2022/03/26 00:13:45;;;;;;;;;60.25;44.75;;;;;13.81;36.63;102350.22;5056386;28;45512;-53
2022/03/26 00:16:11;;;;;;;;;57.25;44.75;;;;;13.80;37.06;102345.00;5057202;28;45361;-54
2022/03/26 00:18:38;;;;;;;;;60.50;43.75;;;;;13.80;37.14;102347.69;5056956;28;47110;-56
2022/03/26 00:21:04;;;;;;;;;60.75;48.00;;;;;13.78;37.06;102346.94;5056846;28;45354;-55
2022/03/26 00:23:29;;;;;;;;;65.00;42.00;;;;;13.68;37.09;102334.34;5057025;28;45397;-52
2022/03/26 00:25:55;;;;;;;;;64.50;44.75;;;;;13.73;37.02;102350.84;5057307;28;45397;-54
2022/03/26 00:28:20;;;;;;;;;61.25;44.50;;;;;13.70;36.63;102347.63;5056176;28;46393;-54
2022/03/26 00:30:46;;;;;;;;;60.00;45.00;;;;;13.68;37.11;102349.56;5056769;28;45467;-53
2022/03/26 00:33:11;;;;;;;;;63.75;46.50;;;;;13.64;37.13;102343.59;5057225;28;45365;-52
2022/03/26 00:35:36;;;;;;;;;62.50;46.25;;;;;13.61;37.71;102345.69;5057021;28;45396;-54
2022/03/26 00:38:02;;;;;;;;;57.50;43.00;;;;;13.59;37.57;102343.16;5056835;28;45460;-54
2022/03/26 00:40:27;;;;;;;;;58.50;43.00;;;;;13.54;37.58;102337.34;5056922;28;45458;-54
2022/03/26 00:42:53;;;;;;;;;58.75;45.00;;;;;13.50;36.94;102340.41;5056939;28;45287;-54
2022/03/26 00:45:19;;;;;;;;;62.75;44.50;;;;;13.47;37.34;102336.97;5056210;28;45345;-51
2022/03/26 00:47:44;;;;;;;;;62.75;42.00;;;;;13.46;37.41;102343.31;5056484;28;47176;-51
2022/03/26 00:50:10;;;;;;;;;53.50;42.00;;;;;13.43;37.68;102342.72;5056544;28;45406;-53
2022/03/26 00:52:36;;;;;;;;;63.00;45.25;;;;;13.41;37.79;102350.03;5056736;28;45989;-50
2022/03/26 00:55:02;;;;;;;;;60.00;44.75;;;;;13.39;38.11;102346.59;5056735;28;45456;-54
2022/03/26 00:57:28;;;;;;;;;62.75;43.75;;;;;13.37;38.26;102345.91;5056663;28;45389;-54
2022/03/26 00:59:53;;;;;;;;;59.50;44.50;;;;;13.34;37.83;102351.50;5056323;28;45508;-55
2022/03/26 01:02:18;;;;;;;;;57.25;43.50;;;;;13.30;37.83;102342.88;5056696;28;45325;-54
2022/03/26 01:04:44;;;;;;;;;63.00;44.75;;;;;13.29;38.14;102340.34;5056636;28;45415;-53
2022/03/26 01:07:09;;;;;;;;;55.00;42.00;;;;;13.27;38.29;102337.75;5056497;28;46310;-54
2022/03/26 01:09:34;;;;;;;;;55.25;44.25;;;;;13.26;38.01;102337.91;5056233;28;45444;-55
2022/03/26 01:12:00;;;;;;;;;62.00;42.75;;;;;13.25;38.05;102344.22;5056394;28;45428;-54
2022/03/26 01:14:25;;;;;;;;;57.25;42.75;;;;;13.21;37.96;102336.41;5056417;28;45220;-54
2022/03/26 01:16:51;;;;;;;;;60.75;44.25;;;;;13.18;37.66;102342.00;5056057;28;47356;-52
2022/03/26 01:19:16;;;;;;;;;58.00;39.00;;;;;13.18;37.86;102341.16;5055215;28;45372;-54
2022/03/26 01:21:42;;;;;;;;;59.75;43.00;;;;;13.14;38.48;102337.88;5056270;28;45333;-50
2022/03/26 01:24:07;;;;;;;;;64.00;47.75;;;;;13.12;38.48;102339.84;5056288;28;45287;-53
2022/03/26 01:26:33;;;;;;;;;57.00;41.25;;;;;13.08;38.69;102338.41;5056028;28;46018;-53
2022/03/26 01:28:58;;;;;;;;;59.50;41.50;;;;;13.06;38.93;102331.47;5056423;28;45928;-55
2022/03/26 01:31:23;;;;;;;;;57.75;42.00;;;;;13.04;38.73;102331.59;5056162;28;45399;-52
2022/03/26 01:33:49;;;;;;;;;56.75;42.75;;;;;13.03;38.32;102335.25;5056470;28;45390;-56
2022/03/26 01:36:15;;;;;;;;;59.50;44.00;;;;;13.02;39.21;102333.56;5055928;28;46275;-52
2022/03/26 01:38:41;;;;;;;;;56.00;42.25;;;;;13.00;39.37;102330.16;5055247;28;45508;-52
2022/03/26 01:41:07;;;;;;;;;62.75;45.75;;;;;12.96;39.01;102326.03;5056159;28;45441;-52
2022/03/26 01:43:33;;;;;;;;;61.00;43.50;;;;;12.95;38.70;102316.31;5056171;28;45443;-54
2022/03/26 01:45:58;;;;;;;;;55.00;44.00;;;;;12.93;39.76;102323.59;5056005;28;46212;-54
2022/03/26 01:48:24;;;;;;;;;63.75;47.00;;;;;12.93;39.35;102328.94;5055786;28;45380;-54
2022/03/26 01:50:49;;;;;;;;;69.50;46.75;;;;;12.90;38.93;102323.88;5055728;28;45376;-51
2022/03/26 01:53:15;;;;;;;;;58.50;44.25;;;;;12.90;39.85;102322.03;5056035;28;45493;-53
2022/03/26 01:55:40;;;;;;;;;56.75;41.00;;;;;12.88;38.82;102323.13;5055523;28;46078;-49
2022/03/26 01:58:06;;;;;;;;;62.00;44.00;;;;;12.86;39.64;102317.91;5055764;28;45397;-52
2022/03/26 02:00:31;;;;;;;;;64.00;46.00;;;;;12.82;39.79;102311.13;5055613;28;45384;-51
2022/03/26 02:02:57;;;;;;;;;53.50;38.00;;;;;12.80;39.55;102314.88;5056235;28;45337;-53
2022/03/26 02:05:22;;;;;;;;;59.50;46.00;;;;;12.79;39.38;102310.50;5055548;28;46168;-53
2022/03/26 02:07:49;;;;;;;;;67.75;46.00;;;;;12.77;40.08;102307.09;5055454;28;45314;-51
2022/03/26 02:10:17;;;;;;;;;67.50;47.25;;;;;12.76;39.89;102308.06;5055682;28;45433;-52
2022/03/26 02:12:43;;;;;;;;;59.00;40.50;;;;;12.73;39.75;102302.03;5055666;28;45773;-53
2022/03/26 02:15:09;;;;;;;;;60.25;44.75;;;;;12.71;39.67;102308.44;5055086;28;45928;-52
2022/03/26 02:17:38;;;;;;;;;50.75;39.00;;;;;12.68;40.04;102304.22;5054415;28;45459;-55
2022/03/26 02:20:08;;;;;;;;;57.00;40.50;;;;;12.69;39.63;102311.25;5055456;28;45309;-51
2022/03/26 02:22:35;;;;;;;;;56.75;41.50;;;;;12.67;40.03;102313.19;5055500;28;45536;-53
2022/03/26 02:25:01;;;;;;;;;59.50;43.25;;;;;12.65;39.82;102304.44;5055104;28;46599;-53
2022/03/26 02:27:29;;;;;;;;;59.75;42.25;;;;;12.64;40.07;102308.09;5055429;28;45427;-51
2022/03/26 02:29:54;;;;;;;;;57.00;41.25;;;;;12.62;38.94;102310.03;5055615;28;45432;-53
2022/03/26 02:32:22;;;;;;;;;60.50;47.50;;;;;12.57;39.81;102304.22;5055231;28;45340;-52
2022/03/26 02:34:48;;;;;;;;;54.75;43.50;;;;;12.53;39.27;102308.09;5054891;28;46182;-52
2022/03/26 02:37:13;;;;;;;;;59.25;44.50;;;;;12.50;39.93;102311.00;5054653;28;45487;-55
2022/03/26 02:39:39;;;;;;;;;58.00;42.75;;;;;12.49;39.21;102307.47;5054800;28;45511;-51
2022/03/26 02:42:05;;;;;;;;;62.75;45.25;;;;;12.46;40.43;102309.53;5054940;28;45384;-51
2022/03/26 02:44:30;;;;;;;;;67.75;44.25;;;;;12.42;39.92;102300.91;5053822;28;45538;-52
2022/03/26 02:46:55;;;;;;;;;41.50;28.50;;;;;12.36;39.92;102298.75;5054857;28;45748;-55
2022/03/26 02:49:21;;;;;;;;;59.25;42.00;;;;;12.37;40.25;102305.78;5054950;28;45849;-51
2022/03/26 02:51:46;;;;;;;;;48.50;39.25;;;;;12.35;40.69;102302.38;5054876;28;45455;-52
2022/03/26 02:54:18;;;;;;;;;56.00;42.50;;;;;12.33;40.45;102303.47;5054560;28;46316;-49
2022/03/26 02:56:47;;;;;;;;;56.50;43.00;;;;;12.29;40.32;102300.19;5054668;28;45570;-56
2022/03/26 02:59:12;;;;;;;;;58.50;44.75;;;;;12.30;40.16;102299.22;5054750;28;45432;-55
2022/03/26 03:01:38;;;;;;;;;59.25;41.75;;;;;12.29;40.56;102310.00;5054893;28;45463;-50
2022/03/26 03:04:04;;;;;;;;;62.75;44.50;;;;;12.27;40.02;102311.97;5054492;28;45404;-55
2022/03/26 03:06:30;;;;;;;;;60.25;43.50;;;;;12.23;40.62;102300.69;5054576;28;45309;-51
2022/03/26 03:08:56;;;;;;;;;56.75;42.50;;;;;12.20;40.55;102292.91;5056315;28;45951;-51
2022/03/26 03:11:21;;;;;;;;;57.00;43.25;;;;;12.19;40.84;102301.88;5058234;28;45321;-50
2022/03/26 03:13:46;;;;;;;;;54.50;42.75;;;;;12.16;40.72;102305.63;5057897;28;45901;-51
2022/03/26 03:16:12;;;;;;;;;49.00;35.25;;;;;12.13;40.24;102299.66;5057535;28;45615;-54
2022/03/26 03:18:37;;;;;;;;;57.50;45.50;;;;;12.11;40.40;102299.81;5058152;28;45407;-50
2022/03/26 03:21:03;;;;;;;;;58.50;42.50;;;;;12.10;40.78;102294.59;5058053;28;45471;-51
2022/03/26 03:23:28;;;;;;;;;59.75;43.00;;;;;12.11;40.81;102305.13;5057773;28;46074;-56
2022/03/26 03:25:53;;;;;;;;;55.50;40.00;;;;;12.09;40.63;102300.88;5057658;28;45424;-54
2022/03/26 03:28:19;;;;;;;;;47.75;36.50;;;;;12.07;40.82;102308.16;5057728;28;45493;-52
2022/03/26 03:30:44;;;;;;;;;48.50;40.00;;;;;12.06;41.11;102309.13;5057837;28;45363;-49
2022/03/26 03:33:10;;;;;;;;;57.25;43.25;;;;;12.05;40.49;102310.09;5057640;28;46888;-53
2022/03/26 03:35:35;;;;;;;;;62.75;44.50;;;;;12.02;41.01;102310.34;5057668;28;45473;-53
2022/03/26 03:38:00;;;;;;;;;54.75;41.00;;;;;12.02;40.72;102307.69;5057891;28;45348;-53
2022/03/26 03:40:26;;;;;;;;;51.00;40.00;;;;;12.00;41.03;102305.09;5057933;28;46227;-53
2022/03/26 03:42:53;;;;;;;;;56.25;39.75;;;;;12.00;41.29;102305.09;5057216;28;46230;-55
2022/03/26 03:45:18;;;;;;;;;50.50;38.50;;;;;11.98;41.42;102307.91;5057394;28;45465;-52
2022/03/26 03:47:43;;;;;;;;;59.50;44.00;;;;;11.97;41.32;102306.22;5057559;28;45530;-55
2022/03/26 03:50:09;;;;;;;;;58.25;43.00;;;;;11.95;41.10;102310.78;5057631;28;45358;-51
2022/03/26 03:52:35;;;;;;;;;57.00;43.00;;;;;11.90;41.12;102301.47;5056855;28;45497;-54
2022/03/26 03:55:00;;;;;;;;;57.00;40.50;;;;;11.91;41.41;102308.47;5057261;28;45385;-55
2022/03/26 03:57:26;;;;;;;;;58.75;40.75;;;;;11.91;41.71;102308.47;5039577;28;45567;-55
2022/03/26 03:59:52;;;;;;;;;56.00;40.75;;;;;11.79;41.42;102293.38;5057306;28;45599;-53
2022/03/26 04:02:17;;;;;;;;;54.25;40.50;;;;;11.91;41.67;102314.66;5057213;28;46236;-54
2022/03/26 04:04:43;;;;;;;;;54.00;42.00;;;;;11.91;41.56;102312.00;5056795;28;45440;-51
2022/03/26 04:07:09;;;;;;;;;54.00;37.00;;;;;11.90;40.77;102315.63;5056764;28;45502;-52
2022/03/26 04:09:35;;;;;;;;;53.75;40.50;;;;;11.86;41.46;102316.84;5057298;28;45360;-54
2022/03/26 04:12:01;;;;;;;;;54.75;40.25;;;;;11.83;41.63;102322.38;5056766;28;46278;-53
2022/03/26 04:14:29;;;;;;;;;58.75;43.00;;;;;11.82;41.52;102327.81;5057143;28;45334;-55
2022/03/26 04:16:54;;;;;;;;;58.50;42.50;;;;;11.78;41.42;102313.88;5056143;28;45597;-52
2022/03/26 04:19:19;;;;;;;;;57.75;40.00;;;;;11.74;41.24;102318.56;5057103;28;45451;-52
2022/03/26 04:21:45;;;;;;;;;53.00;36.25;;;;;11.74;41.35;102318.56;5056793;28;45333;-51
2022/03/26 04:24:11;;;;;;;;;54.25;40.25;;;;;11.73;40.91;102318.69;5038587;28;45529;-53
2022/03/26 04:26:37;;;;;;;;;63.25;41.75;;;;;11.71;41.55;102307.28;5057015;28;45530;-51
2022/03/26 04:29:03;;;;;;;;;54.75;41.25;;;;;11.69;41.64;102314.56;5056943;28;45510;-51
2022/03/26 04:31:28;;;;;;;;;55.25;39.75;;;;;11.68;41.71;102313.72;5056614;28;46235;-55
2022/03/26 04:33:53;;;;;;;;;49.75;37.50;;;;;11.67;41.33;102324.47;5056675;28;45473;-53
2022/03/26 04:36:20;;;;;;;;;54.50;38.00;;;;;11.66;41.55;102323.63;5056847;28;45432;-55
2022/03/26 04:38:46;;;;;;;;;51.00;38.00;;;;;11.61;41.69;102317.81;5057045;28;45479;-55
2022/03/26 04:41:12;;;;;;;;;52.25;38.25;;;;;11.64;41.37;102322.91;5056245;28;46534;-54
2022/03/26 04:43:37;;;;;;;;;54.25;40.75;;;;;11.65;41.73;102334.41;5056449;28;45482;-55
2022/03/26 04:46:03;;;;;;;;;59.00;41.75;;;;;11.63;41.64;102325.66;5056637;28;45274;-52
2022/03/26 04:48:29;;;;;;;;;59.50;44.75;;;;;11.60;41.46;102329.44;5056837;28;45487;-52
2022/03/26 04:50:54;;;;;;;;;57.00;43.25;;;;;11.47;41.54;102310.84;5056560;28;45476;-55
2022/03/26 04:53:19;;;;;;;;;62.75;41.75;;;;;11.56;41.58;102322.63;5056458;28;46115;-50
2022/03/26 04:55:45;;;;;;;;;51.25;39.25;;;;;11.54;41.55;102313.03;5056221;28;45393;-51
2022/03/26 04:58:10;;;;;;;;;53.25;36.25;;;;;11.54;41.85;102321.03;5056663;28;45529;-54
2022/03/26 05:00:36;;;;;;;;;54.50;39.50;;;;;11.53;41.78;102314.84;5056330;28;47027;-51
2022/03/26 05:03:01;;;;;;;;;52.50;40.50;;;;;11.49;42.03;102308.06;5056495;28;45472;-52
2022/03/26 05:05:26;;;;;;;;;56.75;39.50;;;;;11.49;41.87;102316.91;5056415;28;45389;-52
2022/03/26 05:07:55;;;;;;;;;57.00;40.75;;;;;11.49;42.16;102316.91;5056460;28;45433;-52
2022/03/26 05:10:23;;;;;;;;;37.75;20.25;;;;;11.48;41.48;102327.69;5056043;28;46107;-52
2022/03/26 05:12:50;;;;;;;;;61.50;45.25;;;;;11.37;42.01;102316.97;5055830;28;45802;-54
2022/03/26 05:15:18;;;;;;;;;59.00;40.00;;;;;11.44;41.97;102334.19;5055489;28;45423;-52
2022/03/26 05:17:43;;;;;;;;;56.75;39.00;;;;;11.42;42.01;102328.16;5055893;28;45477;-51
2022/03/26 05:20:11;;;;;;;;;54.00;39.75;;;;;11.37;42.09;102324.94;5055714;28;46199;-52
2022/03/26 05:22:37;;;;;;;;;61.50;41.50;;;;;11.38;41.54;102327.53;5055780;28;45382;-52
2022/03/26 05:25:03;;;;;;;;;56.75;39.00;;;;;11.36;42.06;102325.91;5055960;28;45498;-52
2022/03/26 05:27:28;;;;;;;;;56.00;42.75;;;;;11.37;41.82;102330.28;5055990;28;45532;-53
2022/03/26 05:29:55;;;;;;;;;61.50;41.25;;;;;11.36;42.25;102339.25;5055885;28;46049;-53
2022/03/26 05:32:20;;;;;;;;;53.50;39.00;;;;;11.36;42.04;102331.25;5055352;28;45341;-50
2022/03/26 05:34:46;;;;;;;;;61.50;41.25;;;;;11.35;41.85;102333.06;5056565;28;45218;-48
2022/03/26 05:37:12;;;;;;;;;55.75;40.50;;;;;11.34;41.95;102350.03;5056640;28;45538;-53
2022/03/26 05:39:38;;;;;;;;;53.00;36.00;;;;;11.23;41.57;102336.63;5056356;28;46503;-51
2022/03/26 05:42:04;;;;;;;;;52.00;39.50;;;;;11.32;42.51;102349.28;5056089;28;45420;-51
2022/03/26 05:44:30;;;;;;;;;59.75;43.75;;;;;11.32;41.92;102354.59;5056389;28;45368;-51
2022/03/26 05:46:55;;;;;;;;;55.75;41.25;;;;;11.31;42.04;102360.03;5056660;28;45409;-49
2022/03/26 05:49:21;;;;;;;;;41.75;37.25;;;;;11.32;42.32;102356.41;5056143;28;45977;-51
2022/03/26 05:51:46;;;;;;;;;51.50;39.75;;;;;11.30;42.71;102361.03;5056238;28;45286;-51
2022/03/26 05:54:12;;;;;;;;;62.25;43.00;;;;;11.31;42.42;102354.72;5056234;28;45326;-49
2022/03/26 05:56:38;;;;;;;;;56.75;41.50;;;;;11.30;42.60;102353.88;5056184;28;45413;-50
2022/03/26 05:59:04;;;;;;;;;61.50;39.50;;;;;11.33;42.57;102364.28;5055981;28;46047;-52
2022/03/26 06:01:33;;;;;;;;;58.25;41.25;;;;;11.32;42.59;102361.75;5055941;28;45377;-51
2022/03/26 06:03:59;;;;;;;;;45.00;33.25;;;;;11.29;42.49;102351.31;5056069;28;45384;-52
2022/03/26 06:06:25;;;;;;;;;58.00;41.75;;;;;11.34;42.71;102357.16;5055930;28;45474;-57
2022/03/26 06:08:50;;;;;;;;;52.75;39.00;;;;;11.36;42.51;102358.75;5055709;28;46543;-50
2022/03/26 06:11:16;;;;;;;;;60.50;41.75;;;;;11.38;42.42;102350.66;5055443;28;45426;-50
2022/03/26 06:13:41;;;;;;;;;48.50;40.00;;;;;11.42;42.46;102358.31;5054563;28;45345;-52
2022/03/26 06:16:06;;;;;;;;;50.00;39.50;;;;;11.45;42.68;102359.88;5055660;28;45487;-51
2022/03/26 06:18:32;;;;;;;;;56.75;41.50;;;;;11.47;42.19;102365.97;5055508;28;47208;-51
2022/03/26 06:20:57;;;;;;;;;64.75;42.00;;;;;11.49;42.58;102372.84;5055688;28;45405;-52
2022/03/26 06:23:22;;;;;;;;;63.25;43.50;;;;;11.52;42.56;102376.28;5037713;28;45386;-52
2022/03/26 06:25:48;;;;;;;;;58.50;40.50;;;;;11.54;42.48;102369.84;5056046;28;45551;-52
2022/03/26 06:28:19;;;;;;;;;66.50;43.75;;;;;11.60;42.58;102384.56;5055297;28;46103;-52
2022/03/26 06:30:45;;;;;;;;;59.50;42.75;;;;;11.64;42.27;102386.03;5055700;28;45539;-52
2022/03/26 06:33:11;;;;;;;;;54.50;41.50;;;;;11.65;43.46;102382.41;5055486;28;45355;-48
2022/03/26 06:35:37;;;;;;;;;56.75;41.75;;;;;11.70;42.70;102383.75;5055677;28;45451;-50
2022/03/26 06:38:02;;;;;;;;;58.75;43.00;;;;;11.75;42.85;102386.06;5055497;28;45258;-50
2022/03/26 06:40:28;;;;;;;;;62.75;44.50;;;;;11.76;42.49;102376.28;5055417;28;45492;-51
2022/03/26 06:42:53;;;;;;;;;57.00;41.00;;;;;11.82;42.33;102392.66;5055639;28;45823;-52
2022/03/26 06:45:19;;;;;;;;;61.75;45.75;;;;;11.87;42.17;102397.69;5059302;28;45429;-50
2022/03/26 06:47:44;;;;;;;;;66.75;47.50;;;;;11.91;42.54;102397.31;5058109;28;46287;-49
2022/03/26 06:50:09;;;;;;;;;53.50;42.25;;;;;11.94;42.22;102390.94;5057794;28;45385;-50
2022/03/26 06:52:35;;;;;;;;;58.25;42.00;;;;;11.98;42.10;102401.25;5059052;28;45305;-51
2022/03/26 06:55:02;;;;;;;;;55.75;42.50;;;;;12.03;41.89;102403.56;5059260;28;45305;-52
2022/03/26 06:57:27;;;;;;;;;61.25;43.00;;;;;12.09;42.04;102403.09;5058602;28;45380;-54
2022/03/26 06:59:52;;;;;;;;;58.75;45.00;;;;;12.12;41.70;102400.19;5058761;28;45490;-51
2022/03/26 07:02:18;;;;;;;;;60.00;42.50;;;;;12.21;41.99;102410.16;5058952;28;45414;-50
2022/03/26 07:04:43;;;;;;;;;63.25;42.25;;;;;12.26;41.32;102411.63;5058840;28;45317;-50
2022/03/26 07:07:12;;;;;;;;;52.50;43.50;;;;;12.30;40.86;102410.44;5058641;28;46031;-50
2022/03/26 07:09:37;;;;;;;;;66.00;40.00;;;;;12.34;41.06;102417.22;5058789;28;45395;-52
2022/03/26 07:12:02;;;;;;;;;50.75;40.25;;;;;12.37;40.88;102412.53;5058622;28;45373;-52
2022/03/26 07:14:28;;;;;;;;;56.50;39.75;;;;;12.43;40.99;102422.75;5058633;28;45496;-52
2022/03/26 07:16:53;;;;;;;;;60.25;42.00;;;;;12.50;41.14;102423.09;5057490;28;45295;-48
2022/03/26 07:19:19;;;;;;;;;66.00;44.75;;;;;12.54;40.16;102424.56;5058348;28;45360;-50
2022/03/26 07:21:44;;;;;;;;;56.00;44.00;;;;;12.57;40.14;102424.34;5058431;28;45461;-50
2022/03/26 07:24:10;;;;;;;;;67.50;47.00;;;;;12.68;40.04;102442.19;5058538;28;45242;-52
2022/03/26 07:26:36;;;;;;;;;54.75;42.50;;;;;12.36;39.62;102378.81;5058092;28;45480;-51
2022/03/26 07:29:02;;;;;;;;;54.50;39.00;;;;;12.79;39.51;102433.34;5058282;28;45262;-51
2022/03/26 07:31:28;;;;;;;;;54.00;42.25;;;;;12.90;39.57;102436.88;5058426;28;45414;-50
2022/03/26 07:33:53;;;;;;;;;59.50;42.00;;;;;12.96;39.10;102441.72;5058401;28;45289;-51
2022/03/26 07:36:18;;;;;;;;;55.75;41.00;;;;;13.08;39.17;102441.75;5057802;28;46339;-51
2022/03/26 07:38:44;;;;;;;;;65.25;39.00;;;;;13.22;38.91;102447.72;5058086;28;45396;-52
2022/03/26 07:41:10;;;;;;;;;54.00;42.25;;;;;13.35;38.83;102444.91;5058122;28;45523;-49
2022/03/26 07:43:47;;;;;;;;;56.00;46.00;;;;;13.64;38.46;102449.72;5058327;28;45398;-54
2022/03/26 07:46:14;;;;;;;;;57.75;44.25;;;;;14.59;37.28;102445.34;5058121;28;46223;-48
2022/03/26 07:48:39;;;;;;;;;60.00;41.75;;;;;14.66;36.60;102446.53;5057930;28;45468;-51
2022/03/26 07:51:05;;;;;;;;;54.50;42.25;;;;;14.50;36.55;102440.78;5058209;28;45377;-49
2022/03/26 07:53:30;;;;;;;;;61.50;45.25;;;;;14.33;37.00;102444.88;5058280;28;45311;-48
2022/03/26 07:55:56;;;;;;;;;57.25;42.50;;;;;14.28;36.98;102440.84;5057587;28;46182;-48
2022/03/26 07:58:21;;;;;;;;;60.75;42.00;;;;;14.28;37.09;102443.53;5039879;28;45394;-48
2022/03/26 08:00:48;;;;;;;;;53.25;37.75;;;;;14.29;36.77;102446.09;5057765;28;45519;-50
2022/03/26 08:03:14;;;;;;;;;64.00;43.25;;;;;14.27;36.37;102434.66;5058136;28;45425;-51
2022/03/26 08:05:39;;;;;;;;;62.75;43.75;;;;;14.29;36.49;102440.75;5057571;28;45447;-48
2022/03/26 08:08:05;;;;;;;;;52.50;38.25;;;;;14.31;36.03;102429.91;5057018;28;45329;-49
2022/03/26 08:10:30;;;;;;;;;58.25;41.50;;;;;14.32;36.44;102443.13;5057810;28;45337;-49
2022/03/26 08:12:56;;;;;;;;;53.75;41.25;;;;;14.45;35.76;102448.31;5056515;28;45456;-48
2022/03/26 08:15:21;;;;;;;;;53.00;42.25;;;;;14.56;35.58;102445.59;5057022;28;46418;-49
2022/03/26 08:17:46;;;;;;;;;53.25;39.25;;;;;14.70;35.67;102447.09;5056984;28;45490;-48
2022/03/26 08:20:12;;;;;;;;;57.75;38.00;;;;;14.84;35.08;102440.56;5057233;28;45440;-48
2022/03/26 08:22:37;;;;;;;;;48.50;38.00;;;;;15.14;35.03;102447.75;5057269;28;45398;-48
2022/03/26 08:25:03;;;;;;;;;48.75;38.75;;;;;16.44;33.30;102452.06;5057079;28;46313;-51
2022/03/26 08:27:28;;;;;;;;;57.75;39.00;;;;;17.72;31.37;102438.81;5057043;28;45490;-51
2022/03/26 08:29:54;;;;;;;;;36.75;34.25;;;;;18.47;30.86;102442.03;5056955;28;45255;-48
2022/03/26 08:32:19;;;;;;;;;39.50;32.25;;;;;18.04;31.08;102442.88;5057090;28;45262;-49
2022/03/26 08:34:45;;;;;;;;;53.25;39.50;;;;;17.81;31.08;102445.16;5056965;28;45568;-51
2022/03/26 08:37:11;;;;;;;;;54.50;40.00;;;;;17.68;30.56;102446.34;5056783;28;45372;-48
2022/03/26 08:39:36;;;;;;;;;35.33;28.33;;;;;17.79;30.46;102450.69;5057194;28;45368;-49
2022/03/26 08:42:03;;;;;;;;;52.33;33.67;;;;;19.36;29.71;102444.41;5057017;28;45514;-53
2022/03/26 08:44:28;;;;;;;;;53.67;39.67;;;;;21.07;26.83;102437.34;5056309;28;46220;-50
2022/03/26 08:46:53;;;;;;;;;56.00;38.00;;;;;22.37;25.91;102436.56;5056878;28;45443;-50
2022/03/26 08:49:19;;;;;;;;;55.00;39.00;;;;;23.28;23.62;102437.31;5056773;28;45329;-51
2022/03/26 08:51:45;;;;;;;;;52.33;38.67;;;;;23.95;22.69;102441.66;5056870;28;45263;-51
2022/03/26 08:54:11;;;;;;;;;52.33;41.00;;;;;24.71;23.20;102432.88;5056548;28;46281;-54
2022/03/26 08:56:36;;;;;;;;;53.67;39.00;;;;;25.39;21.51;102442.88;5056404;28;45384;-49
2022/03/26 08:59:01;;;;;;;;;48.67;38.33;;;;;25.86;21.44;102429.41;5056878;28;45472;-50
2022/03/26 09:01:27;;;;;;;;;47.00;39.00;;;;;26.39;20.05;102434.91;5056890;28;45479;-51
2022/03/26 09:03:52;;;;;;;;;50.67;41.67;;;;;26.82;21.31;102434.44;5056887;28;45977;-56
2022/03/26 09:06:18;;;;;;;;;46.00;35.33;;;;;27.13;20.31;102439.19;5055513;28;45368;-51
2022/03/26 09:08:43;;;;;;;;;50.33;38.67;;;;;27.47;19.88;102435.25;5055598;28;45420;-54
2022/03/26 09:11:09;;;;;;;;;49.33;38.67;;;;;27.96;19.65;102433.72;5056915;28;45450;-53
2022/03/26 09:13:34;;;;;;;;;54.67;40.33;;;;;28.13;19.40;102433.16;5055218;28;45502;-53
2022/03/26 09:16:01;;;;;;;;;43.00;34.33;;;;;28.14;18.96;102432.09;5056521;28;45329;-51
2022/03/26 09:18:27;;;;;;;;;58.00;40.33;;;;;27.88;20.13;102424.94;5056465;28;45480;-51
2022/03/26 09:20:53;;;;;;;;;41.00;35.00;;;;;27.41;20.54;102427.09;5056359;28;45480;-50
2022/03/26 09:23:19;;;;;;;;;54.00;42.33;;;;;27.37;19.68;102426.69;5054946;28;45440;-51
2022/03/26 09:25:44;;;;;;;;;49.67;38.33;;;;;27.64;19.54;102416.44;5056104;28;45369;-51
2022/03/26 09:28:10;;;;;;;;;48.00;35.33;;;;;27.99;19.54;102432.44;5056461;28;45393;-51
2022/03/26 09:30:36;;;;;;;;;51.00;37.67;;;;;28.06;18.57;102430.47;5056174;28;45309;-51
2022/03/26 09:33:03;;;;;;;;;36.33;30.33;;;;;28.14;19.99;102430.19;5055302;28;46109;-50
2022/03/26 09:35:28;;;;;;;;;56.67;41.33;;;;;27.90;19.71;102420.94;5056109;28;45218;-47
2022/03/26 09:37:54;;;;;;;;;48.33;38.67;;;;;27.88;18.75;102420.31;5056010;28;45383;-53
2022/03/26 09:40:22;;;;;;;;;48.67;38.00;;;;;27.89;19.40;102423.88;5056467;28;45343;-51
2022/03/26 09:42:48;;;;;;;;;49.33;37.67;;;;;27.92;20.00;102407.88;5055572;28;46506;-48
2022/03/26 09:45:13;;;;;;;;;38.00;32.67;;;;;28.21;19.20;102427.41;5055865;28;45806;-53
2022/03/26 09:47:39;;;;;;;;;41.75;35.75;;;;;28.46;20.60;102421.97;5056036;28;45875;-50
2022/03/26 09:50:07;;;;;;;;;53.50;37.25;;;;;28.64;19.44;102416.50;5056303;28;45373;-50
2022/03/26 09:52:33;;;;;;;;;46.33;36.67;;;;;28.91;19.83;102422.53;5056009;28;45393;-49
2022/03/26 09:54:59;;;;;;;;;47.33;39.33;;;;;29.52;19.33;102415.22;5055762;28;45677;-50
2022/03/26 09:57:25;;;;;;;;;47.75;39.00;;;;;30.84;17.78;102414.09;5055862;28;45412;-50
2022/03/26 09:59:50;;;;;;;;;46.25;37.50;;;;;32.78;16.73;102426.66;5056061;28;45318;-51
2022/03/26 10:02:16;;;;;;;;;53.75;39.00;;;;;34.42;13.98;102421.72;5055657;28;46180;-52
2022/03/26 10:04:43;;;;;;;;;46.50;35.00;;;;;35.57;13.72;102420.88;5055504;28;45318;-52
2022/03/26 10:07:09;;;;;;;;;50.25;38.25;;;;;36.41;14.28;102416.69;5055451;28;45459;-51
2022/03/26 10:09:39;;;;;;;;;48.75;37.50;;;;;37.15;12.16;102417.00;5055751;28;45450;-52
2022/03/26 10:12:16;;;;;;;;;46.50;37.25;;;;;37.73;13.28;102417.19;5055404;28;46374;-50
2022/03/26 10:14:47;;;;;;;;;51.75;39.25;;;;;38.31;12.61;102408.88;5055224;28;45429;-49
2022/03/26 10:17:31;;;;;;;;;47.75;37.50;;;;;38.76;10.69;102405.88;5056454;28;45432;-50
2022/03/26 10:19:58;;;;;;;;;46.75;34.50;;;;;39.31;10.71;102398.72;5059206;28;45446;-51
2022/03/26 10:22:36;;;;;;;;;50.75;39.00;;;;;40.09;11.06;102401.91;5058863;28;46090;-51
2022/03/26 10:25:06;;;;;;;;;43.80;34.80;;;;;40.43;9.88;102397.94;5059205;28;45266;-51
2022/03/26 10:27:36;;;;;;;;;49.80;38.40;;;;;40.59;9.13;102396.53;5059357;28;45508;-52
2022/03/26 10:30:03;;;;;;;;;45.80;37.20;;;;;40.99;9.39;102397.63;5059038;28;46009;-53
2022/03/26 10:32:45;;;;;;;;;48.40;37.00;;;;;41.30;10.16;102403.31;5059067;28;45555;-50
2022/03/26 10:35:12;;;;;;;;;46.20;38.60;;;;;41.59;9.23;102397.34;5058989;28;45338;-51
2022/03/26 10:37:45;;;;;;;;;48.60;38.20;;;;;41.67;10.02;102387.31;5058855;28;45362;-50
2022/03/26 10:40:23;;;;;;;;;36.00;28.40;;;;;41.82;9.66;102397.34;5058984;28;45845;-50
2022/03/26 10:43:15;;;;;;;;;49.60;37.00;;;;;42.01;9.60;102391.50;5058777;28;45326;-52
2022/03/26 10:45:52;;;;;;;;;42.60;34.20;;;;;42.13;10.31;102386.13;5058758;28;45239;-54
2022/03/26 10:48:26;;;;;;;;;45.60;36.80;;;;;42.42;8.50;102385.63;5058857;28;45582;-52
2022/03/26 10:50:56;;;;;;;;;46.40;38.20;;;;;42.97;7.83;102385.09;5058810;28;45332;-50
2022/03/26 10:53:22;;;;;;;;;47.80;37.40;;;;;43.60;8.73;102382.78;5058447;28;45352;-50
2022/03/26 10:55:49;;;;;;;;;50.00;39.00;;;;;43.84;7.71;102379.44;5058617;28;45234;-53
2022/03/26 10:58:14;;;;;;;;;41.00;35.80;;;;;43.90;8.91;102378.13;5058455;28;45509;-52
2022/03/26 11:00:42;;;;;;;;;43.50;36.00;;;;;43.78;8.05;102377.97;5058509;28;45342;-50
2022/03/26 11:03:07;;;;;;;;;49.60;39.00;;;;;43.70;8.51;102370.41;5058343;28;46603;-51
2022/03/26 11:05:34;;;;;;;;;50.00;40.75;;;;;43.39;8.22;102377.03;5058333;28;45457;-53